Time;durP1;ratioP1;P1;durP2;ratioP2;P2;SDS_P1;SDS_P2;PMS_P1;PMS_P2;Temp;Humidity;BMP_temperature;BMP_pressure;BME280_temperature;BME280_humidity;BME280_pressure;Samples;Min_cycle;Max_cycle;Signal;HPM_P1;HPM_P2
2021/11/14 00:01:29;;;;;;;27.80;8.70;;;;;;;-145.18;100.00;60484.78;5031305;28;20029;-71
2021/11/14 00:03:55;;;;;;;24.17;8.93;;;;;;;-145.18;100.00;60484.78;5037976;28;20055;-71
2021/11/14 00:06:21;;;;;;;24.73;9.07;;;;;;;-145.18;100.00;60484.78;5032522;28;20071;-71
2021/11/14 00:08:50;;;;;;;24.97;9.30;;;;;;;-145.18;100.00;60484.78;5038200;28;20033;-71
2021/11/14 00:11:18;;;;;;;25.10;8.70;;;;;;;-145.18;100.00;60484.78;5030771;28;20516;-70
2021/11/14 00:13:44;;;;;;;28.23;8.80;;;;;;;-145.18;100.00;60484.78;5033427;28;20028;-70
2021/11/14 00:16:14;;;;;;;22.27;8.57;;;;;;;-145.18;100.00;60484.78;5033365;28;20025;-70
2021/11/14 00:18:41;;;;;;;23.47;9.23;;;;;;;-145.18;100.00;60484.78;5037183;28;20120;-70
2021/11/14 00:21:10;;;;;;;21.50;8.87;;;;;;;-145.18;100.00;60484.78;5036042;28;20028;-70
2021/11/14 00:23:35;;;;;;;24.87;8.40;;;;;;;-145.18;100.00;60484.78;5036642;28;20370;-70
2021/11/14 00:26:02;;;;;;;22.80;9.00;;;;;;;-145.18;100.00;60484.78;5037838;28;20079;-70
2021/11/14 00:28:28;;;;;;;25.93;8.23;;;;;;;-145.18;100.00;60484.78;5037664;28;20033;-70
2021/11/14 00:30:53;;;;;;;23.57;8.67;;;;;;;-145.18;100.00;60484.78;5033292;28;20285;-70
2021/11/14 00:33:20;;;;;;;22.10;8.43;;;;;;;-145.18;100.00;60484.78;5037636;28;20380;-70
2021/11/14 00:35:48;;;;;;;25.07;8.90;;;;;;;-145.18;100.00;60484.78;5037941;28;20520;-70
2021/11/14 00:38:14;;;;;;;20.60;8.23;;;;;;;-145.18;100.00;60484.78;5038254;28;20040;-70
2021/11/14 00:40:40;;;;;;;22.27;8.03;;;;;;;-145.18;100.00;60484.78;5038050;28;20493;-70
2021/11/14 00:43:06;;;;;;;22.53;8.70;;;;;;;-145.18;100.00;60484.78;5037716;28;20501;-70
2021/11/14 00:45:34;;;;;;;23.27;8.30;;;;;;;-145.18;100.00;60484.78;5030429;28;20040;-70
2021/11/14 00:48:01;;;;;;;24.93;9.23;;;;;;;-145.18;100.00;60484.78;5035919;28;20036;-70
2021/11/14 00:50:27;;;;;;;27.83;9.37;;;;;;;-145.18;100.00;60484.78;5032455;28;20052;-70
2021/11/14 00:52:53;;;;;;;23.50;8.23;;;;;;;-145.18;100.00;60484.78;5038019;28;20092;-70
2021/11/14 00:55:20;;;;;;;26.73;8.97;;;;;;;-145.18;100.00;60484.78;5037283;28;20055;-70
2021/11/14 00:57:48;;;;;;;24.80;9.60;;;;;;;-145.18;100.00;60484.78;5037803;28;20046;-70
2021/11/14 01:00:17;;;;;;;25.07;8.97;;;;;;;-145.18;100.00;60484.78;5034638;28;20016;-70
2021/11/14 01:02:43;;;;;;;25.73;9.63;;;;;;;-145.18;100.00;60484.78;5036982;28;20049;-70
2021/11/14 01:05:11;;;;;;;28.70;8.80;;;;;;;-145.18;100.00;60484.78;5031989;28;20122;-70
2021/11/14 01:07:37;;;;;;;38.73;11.13;;;;;;;-145.18;100.00;60484.78;5035651;28;20037;-70
2021/11/14 01:10:05;;;;;;;34.03;10.73;;;;;;;-145.18;100.00;60484.78;5032654;28;20017;-70
2021/11/14 01:12:31;;;;;;;29.37;10.00;;;;;;;-145.18;100.00;60484.78;5037634;28;20044;-70
2021/11/14 01:14:56;;;;;;;39.10;11.10;;;;;;;-145.18;100.00;60484.78;5036976;28;20025;-70
2021/11/14 01:17:22;;;;;;;31.63;9.90;;;;;;;-145.18;100.00;60484.78;5041256;28;20025;-70
2021/11/14 01:19:47;;;;;;;31.50;9.20;;;;;;;-145.18;100.00;60484.78;5038404;28;20156;-70
2021/11/14 01:22:15;;;;;;;31.03;10.43;;;;;;;-145.18;100.00;60484.78;5040693;28;20413;-70
2021/11/14 01:24:41;;;;;;;38.00;11.57;;;;;;;-145.18;100.00;60484.78;5038738;28;20025;-70
2021/11/14 01:27:06;;;;;;;30.00;9.03;;;;;;;-145.18;100.00;60484.78;5038728;28;20079;-70
2021/11/14 01:29:32;;;;;;;29.53;10.17;;;;;;;-145.18;100.00;60484.78;5040244;28;20029;-70
2021/11/14 01:31:58;;;;;;;28.77;9.33;;;;;;;-145.18;100.00;60484.78;5037999;28;20102;-70
2021/11/14 01:34:25;;;;;;;28.17;10.30;;;;;;;-145.18;100.00;60484.78;5040396;28;20119;-70
2021/11/14 01:36:50;;;;;;;24.67;9.93;;;;;;;-145.18;100.00;60484.78;5037780;28;20210;-70
2021/11/14 01:39:15;;;;;;;27.53;8.63;;;;;;;-145.18;100.00;60484.78;5039955;28;20118;-70
2021/11/14 01:41:42;;;;;;;23.67;9.20;;;;;;;-145.18;100.00;60484.78;5033142;28;20037;-70
2021/11/14 01:44:09;;;;;;;25.20;8.70;;;;;;;-145.18;100.00;60484.78;5040744;28;20036;-70
2021/11/14 01:46:35;;;;;;;28.37;9.57;;;;;;;-145.18;100.00;60484.78;5036068;28;20078;-70
2021/11/14 01:49:00;;;;;;;24.93;8.87;;;;;;;-145.18;100.00;60484.78;5040339;28;20041;-70
2021/11/14 01:51:26;;;;;;;26.43;9.27;;;;;;;-145.18;100.00;60484.78;5035270;28;20087;-70
2021/11/14 01:53:52;;;;;;;26.50;9.60;;;;;;;-145.18;100.00;60484.78;5040744;28;20029;-70
2021/11/14 01:56:20;;;;;;;24.80;9.00;;;;;;;-145.18;100.00;60484.78;5036311;28;20063;-70
2021/11/14 01:58:47;;;;;;;27.73;9.37;;;;;;;-145.18;100.00;60484.78;5038710;28;20183;-70
2021/11/14 02:01:23;;;;;;;28.33;9.33;;;;;;;-145.18;100.00;60484.78;5038974;28;20029;-70
2021/11/14 02:03:54;;;;;;;33.33;10.03;;;;;;;-145.18;100.00;60484.78;5075375;22;20052;-65
2021/11/14 02:06:22;;;;;;;32.97;10.15;;;;;;;-145.18;100.00;60484.78;5065682;28;20097;-65
2021/11/14 02:08:48;;;;;;;29.40;9.60;;;;;;;-145.18;100.00;60484.78;5079720;28;20031;-65
2021/11/14 02:11:16;;;;;;;28.23;9.57;;;;;;;-145.18;100.00;60484.78;5071922;28;20185;-66
2021/11/14 02:13:44;;;;;;;24.90;8.90;;;;;;;-145.18;100.00;60484.78;5080479;28;20471;-66
2021/11/14 02:16:10;;;;;;;27.10;9.43;;;;;;;-145.18;100.00;60484.78;5074267;28;20024;-66
2021/11/14 02:18:36;;;;;;;29.87;10.73;;;;;;;-145.18;100.00;60484.78;5075181;28;20277;-66
2021/11/14 02:21:01;;;;;;;42.87;10.70;;;;;;;-145.18;100.00;60484.78;5077787;28;20047;-66
2021/11/14 02:23:27;;;;;;;25.93;8.50;;;;;;;-145.18;100.00;60484.78;5072792;28;20031;-66
2021/11/14 02:25:53;;;;;;;27.30;9.37;;;;;;;-145.18;100.00;60484.78;5072643;28;20119;-66
2021/11/14 02:28:21;;;;;;;30.60;9.87;;;;;;;-145.18;100.00;60484.78;5079597;28;20577;-66
2021/11/14 02:30:50;;;;;;;32.90;10.20;;;;;;;-145.18;100.00;60484.78;5078432;28;20243;-66
2021/11/14 02:33:17;;;;;;;30.40;9.83;;;;;;;-145.18;100.00;60484.78;5075111;28;20047;-66
2021/11/14 02:35:45;;;;;;;34.50;9.60;;;;;;;-145.18;100.00;60484.78;5074094;28;20058;-66
2021/11/14 02:38:11;;;;;;;34.20;9.87;;;;;;;-145.18;100.00;60484.78;5076185;28;20814;-66
2021/11/14 02:40:37;;;;;;;37.60;10.33;;;;;;;-145.18;100.00;60484.78;5078050;28;20051;-66
2021/11/14 02:43:04;;;;;;;33.00;10.40;;;;;;;-145.18;100.00;60484.78;5079629;28;20202;-66
2021/11/14 02:45:30;;;;;;;37.90;9.30;;;;;;;-145.18;100.00;60484.78;5078858;28;20023;-66
2021/11/14 02:47:56;;;;;;;30.57;9.50;;;;;;;-145.18;100.00;60484.78;5079759;28;20110;-66
2021/11/14 02:50:22;;;;;;;38.77;10.33;;;;;;;-145.18;100.00;60484.78;5073082;28;20024;-66
2021/11/14 02:52:49;;;;;;;36.03;10.40;;;;;;;-145.18;100.00;60484.78;5073994;28;20043;-66
2021/11/14 02:55:18;;;;;;;31.83;9.07;;;;;;;-145.18;100.00;60484.78;5073691;28;20358;-66
2021/11/14 02:57:43;;;;;;;34.37;11.43;;;;;;;-145.18;100.00;60484.78;5079263;28;20302;-66
2021/11/14 03:00:14;;;;;;;31.70;10.30;;;;;;;-145.18;100.00;60484.78;5078364;28;20106;-66
2021/11/14 03:02:39;;;;;;;37.90;10.17;;;;;;;-145.18;100.00;60484.78;5078937;28;20585;-66
2021/11/14 03:05:11;;;;;;;34.03;10.20;;;;;;;-145.18;100.00;60484.78;5078006;28;20119;-66
2021/11/14 03:07:36;;;;;;;41.00;10.68;;;;;;;-145.18;100.00;60484.78;5078355;28;20027;-66
2021/11/14 03:10:05;;;;;;;34.07;9.30;;;;;;;-145.18;100.00;60484.78;5068497;28;20494;-66
2021/11/14 03:12:31;;;;;;;33.70;10.47;;;;;;;-145.18;100.00;60484.78;5069435;28;20036;-65
2021/11/14 03:14:58;;;;;;;35.17;10.23;;;;;;;-145.18;100.00;60484.78;5074533;28;20329;-65
2021/11/14 03:17:24;;;;;;;39.53;10.77;;;;;;;-145.18;100.00;60484.78;5078659;28;20024;-65
2021/11/14 03:19:49;;;;;;;31.60;10.83;;;;;;;-145.18;100.00;60484.78;5070557;28;20031;-65
2021/11/14 03:22:15;;;;;;;31.73;9.33;;;;;;;-145.18;100.00;60484.78;5077701;28;20020;-65
2021/11/14 03:24:40;;;;;;;34.97;10.47;;;;;;;-145.18;100.00;60484.78;5077841;28;20336;-65
2021/11/14 03:27:06;;;;;;;36.17;9.83;;;;;;;-145.18;100.00;60484.78;5077458;28;20446;-65
2021/11/14 03:29:32;;;;;;;37.53;10.43;;;;;;;-145.18;100.00;60484.78;5074254;28;20426;-65
2021/11/14 03:31:57;;;;;;;36.40;10.57;;;;;;;-145.18;100.00;60484.78;5072718;28;20027;-65
2021/11/14 03:34:22;;;;;;;34.07;10.10;;;;;;;-145.18;100.00;60484.78;5076850;28;20050;-70
2021/11/14 03:36:48;;;;;;;29.97;10.83;;;;;;;-145.18;100.00;60484.78;5070729;28;20278;-70
2021/11/14 03:39:13;;;;;;;35.73;10.63;;;;;;;-145.18;100.00;60484.78;5078165;28;20020;-70
2021/11/14 03:41:42;;;;;;;35.63;10.13;;;;;;;-145.18;100.00;60484.78;5072543;28;20116;-70
2021/11/14 03:44:09;;;;;;;39.17;10.80;;;;;;;-145.18;100.00;60484.78;5076251;28;20020;-70
2021/11/14 03:46:35;;;;;;;28.90;10.07;;;;;;;-145.18;100.00;60484.78;5078378;28;20024;-70
2021/11/14 03:49:02;;;;;;;38.23;11.13;;;;;;;-145.18;100.00;60484.78;5077480;28;20028;-70
2021/11/14 03:51:28;;;;;;;34.50;10.60;;;;;;;-145.18;100.00;60484.78;5065922;28;20586;-70
2021/11/14 03:53:55;;;;;;;32.13;9.30;;;;;;;-145.18;100.00;60484.78;5078174;28;20430;-67
2021/11/14 03:56:21;;;;;;;38.27;10.90;;;;;;;-145.18;100.00;60484.78;5070271;28;20325;-67
2021/11/14 03:58:47;;;;;;;33.43;10.20;;;;;;;-145.18;100.00;60484.78;5071863;28;20034;-67
2021/11/14 04:01:17;;;;;;;35.57;11.53;;;;;;;-145.18;100.00;60484.78;5073058;28;20027;-67
2021/11/14 04:03:43;;;;;;;34.33;10.60;;;;;;;-145.18;100.00;60484.78;5072414;28;20316;-67
2021/11/14 04:06:08;;;;;;;33.30;10.37;;;;;;;-145.18;100.00;60484.78;5073645;28;20074;-67
2021/11/14 04:08:34;;;;;;;38.27;10.33;;;;;;;-145.18;100.00;60484.78;5076524;28;20204;-67
2021/11/14 04:11:01;;;;;;;36.60;10.30;;;;;;;-145.18;100.00;60484.78;5075380;28;20313;-67
2021/11/14 04:13:30;;;;;;;34.63;10.83;;;;;;;-145.18;100.00;60484.78;5077018;28;20289;-67
2021/11/14 04:15:59;;;;;;;43.23;10.60;;;;;;;-145.18;100.00;60484.78;5061891;28;20230;-67
2021/11/14 04:18:25;;;;;;;36.53;9.57;;;;;;;-145.18;100.00;60484.78;5073126;28;20016;-67
2021/11/14 04:20:52;;;;;;;36.27;9.77;;;;;;;-145.18;100.00;60484.78;5066537;28;20021;-67
2021/11/14 04:23:18;;;;;;;46.80;10.93;;;;;;;-145.18;100.00;60484.78;5068091;28;20055;-67
2021/11/14 04:25:44;;;;;;;38.93;10.43;;;;;;;-145.18;100.00;60484.78;5077857;28;20039;-67
2021/11/14 04:28:12;;;;;;;31.73;9.60;;;;;;;-145.18;100.00;60484.78;5072833;28;20100;-67
2021/11/14 04:30:39;;;;;;;36.17;10.83;;;;;;;-145.18;100.00;60484.78;5062218;28;20024;-67
2021/11/14 04:33:04;;;;;;;31.10;10.13;;;;;;;-145.18;100.00;60484.78;5066117;28;20034;-67
2021/11/14 04:35:30;;;;;;;32.90;10.60;;;;;;;-145.18;100.00;60484.78;5073345;28;20672;-67
2021/11/14 04:37:55;;;;;;;38.87;10.77;;;;;;;-145.18;100.00;60484.78;5068048;28;20020;-67
2021/11/14 04:40:25;;;;;;;41.77;10.13;;;;;;;-145.18;100.00;60484.78;5077893;28;20085;-67
2021/11/14 04:42:52;;;;;;;43.00;11.87;;;;;;;-145.18;100.00;60484.78;5065548;28;20031;-67
2021/11/14 04:45:17;;;;;;;37.67;9.47;;;;;;;-145.18;100.00;60484.78;5075459;28;20024;-67
2021/11/14 04:47:43;;;;;;;36.57;10.57;;;;;;;-145.18;100.00;60484.78;5081911;28;20024;-67
2021/11/14 04:50:11;;;;;;;34.27;10.50;;;;;;;-145.18;100.00;60484.78;5078553;28;20028;-67
2021/11/14 04:52:37;;;;;;;34.03;9.80;;;;;;;-145.18;100.00;60484.78;5068822;28;20081;-67
2021/11/14 04:55:05;;;;;;;43.93;10.27;;;;;;;-145.18;100.00;60484.78;5080494;28;20083;-67
2021/11/14 04:57:30;;;;;;;28.20;10.97;;;;;;;-145.18;100.00;60484.78;5075201;28;20096;-67
2021/11/14 04:59:56;;;;;;;38.90;10.13;;;;;;;-145.18;100.00;60484.78;5079208;28;20491;-68
2021/11/14 05:02:21;;;;;;;32.67;9.37;;;;;;;-145.18;100.00;60484.78;5082016;28;20056;-68
2021/11/14 05:04:47;;;;;;;34.40;9.97;;;;;;;-145.18;100.00;60484.78;5077526;28;20097;-68
2021/11/14 05:07:12;;;;;;;32.63;10.10;;;;;;;-145.18;100.00;60484.78;5081387;28;20030;-68
2021/11/14 05:09:47;;;;;;;34.73;10.40;;;;;;;-145.18;100.00;60484.78;5079183;28;20659;-70
2021/11/14 05:12:13;;;;;;;36.43;10.40;;;;;;;-145.18;100.00;60484.78;5081579;28;20032;-68
2021/11/14 05:14:38;;;;;;;30.93;8.90;;;;;;;-145.18;100.00;60484.78;5063295;28;20038;-68
2021/11/14 05:17:04;;;;;;;38.93;10.37;;;;;;;-145.18;100.00;60484.78;5081819;28;20181;-68
2021/11/14 05:19:32;;;;;;;31.03;9.70;;;;;;;-145.18;100.00;60484.78;5078939;28;20251;-68
2021/11/14 05:21:57;;;;;;;33.27;10.13;;;;;;;-145.18;100.00;60484.78;5080881;28;20468;-67
2021/11/14 05:24:22;;;;;;;32.90;9.20;;;;;;;-145.18;100.00;60484.78;5080748;28;20165;-68
2021/11/14 05:26:50;;;;;;;36.37;9.97;;;;;;;-145.18;100.00;60484.78;5081378;28;20024;-68
2021/11/14 05:29:16;;;;;;;39.83;10.10;;;;;;;-145.18;100.00;60484.78;5069409;28;20024;-68
2021/11/14 05:31:41;;;;;;;28.97;8.90;;;;;;;-145.18;100.00;60484.78;5078022;28;20403;-68
2021/11/14 05:34:07;;;;;;;32.97;9.57;;;;;;;-145.18;100.00;60484.78;5070374;28;20298;-68
2021/11/14 05:36:32;;;;;;;34.00;8.77;;;;;;;-145.18;100.00;60484.78;5071517;28;20293;-68
2021/11/14 05:38:58;;;;;;;29.83;8.60;;;;;;;-145.18;100.00;60484.78;5081569;28;20019;-69
2021/11/14 05:41:23;;;;;;;33.13;9.70;;;;;;;-145.18;100.00;60484.78;5078536;28;20478;-68
2021/11/14 05:43:49;;;;;;;31.23;8.93;;;;;;;-145.18;100.00;60484.78;5079891;28;20020;-68
2021/11/14 05:46:14;;;;;;;32.27;9.47;;;;;;;-145.18;100.00;60484.78;5078674;28;20035;-68
2021/11/14 05:48:40;;;;;;;33.63;9.93;;;;;;;-145.18;100.00;60484.78;5079326;28;20029;-68
2021/11/14 05:51:06;;;;;;;34.80;10.30;;;;;;;-145.18;100.00;60484.78;5074229;28;20294;-69
2021/11/14 05:53:32;;;;;;;45.83;9.17;;;;;;;-145.18;100.00;60484.78;5075170;28;20265;-68
2021/11/14 05:55:57;;;;;;;33.60;9.00;;;;;;;-145.18;100.00;60484.78;5075153;28;20077;-69
2021/11/14 05:58:36;;;;;;;32.57;9.47;;;;;;;-145.18;100.00;60484.78;5079094;28;20037;-69
2021/11/14 06:03:52;;;;;;;42.33;10.43;;;;;;;-145.18;100.00;60484.78;5079126;28;20545;-69
2021/11/14 06:06:18;;;;;;;32.13;10.40;;;;;;;-145.18;100.00;60484.78;5080115;28;20043;-69
2021/11/14 06:08:43;;;;;;;41.33;10.97;;;;;;;-145.18;100.00;60484.78;5078038;28;20406;-67
2021/11/14 06:11:09;;;;;;;34.90;9.50;;;;;;;-145.18;100.00;60484.78;5069365;28;20050;-67
2021/11/14 06:13:34;;;;;;;41.73;10.37;;;;;;;-145.18;100.00;60484.78;5076409;28;20265;-67
2021/11/14 06:16:00;;;;;;;39.70;9.40;;;;;;;-145.18;100.00;60484.78;5079466;28;20020;-67
2021/11/14 06:18:26;;;;;;;40.20;9.60;;;;;;;-145.18;100.00;60484.78;5075492;28;20027;-68
2021/11/14 06:20:52;;;;;;;32.57;10.33;;;;;;;-145.18;100.00;60484.78;5074356;28;20012;-69
2021/11/14 06:23:17;;;;;;;34.13;9.67;;;;;;;-145.18;100.00;60484.78;5078746;28;20070;-68
2021/11/14 06:25:43;;;;;;;33.93;10.13;;;;;;;-145.18;100.00;60484.78;5078672;28;20020;-68
2021/11/14 06:28:09;;;;;;;41.07;10.77;;;;;;;-145.18;100.00;60484.78;5069110;28;20254;-68
2021/11/14 06:30:35;;;;;;;38.10;10.97;;;;;;;-145.18;100.00;60484.78;5072958;28;20276;-67
2021/11/14 06:33:01;;;;;;;34.33;9.97;;;;;;;-145.18;100.00;60484.78;5076384;28;20139;-67
2021/11/14 06:35:26;;;;;;;39.27;10.37;;;;;;;-145.18;100.00;60484.78;5072932;28;20514;-67
2021/11/14 06:37:52;;;;;;;40.13;9.77;;;;;;;-145.18;100.00;60484.78;5079065;28;20073;-67
2021/11/14 06:40:18;;;;;;;38.07;10.00;;;;;;;-145.18;100.00;60484.78;5072448;28;20024;-67
2021/11/14 06:42:44;;;;;;;38.03;10.30;;;;;;;-145.18;100.00;60484.78;5079630;28;20169;-67
2021/11/14 06:45:10;;;;;;;36.77;9.83;;;;;;;-145.18;100.00;60484.78;5076619;28;20019;-67
2021/11/14 06:47:37;;;;;;;42.50;11.20;;;;;;;-145.18;100.00;60484.78;5076045;28;20153;-67
2021/11/14 06:50:05;;;;;;;43.90;10.60;;;;;;;-145.18;100.00;60484.78;5069816;28;20152;-67
2021/11/14 06:52:30;;;;;;;32.37;9.57;;;;;;;-145.18;100.00;60484.78;5077868;28;20427;-68
2021/11/14 06:54:57;;;;;;;40.90;10.23;;;;;;;-145.18;100.00;60484.78;5078682;28;20046;-67
2021/11/14 06:57:22;;;;;;;37.43;10.37;;;;;;;-145.18;100.00;60484.78;5077443;28;20031;-67
2021/11/14 06:59:49;;;;;;;38.27;10.33;;;;;;;-145.18;100.00;60484.78;5079258;28;20032;-67
2021/11/14 07:02:15;;;;;;;44.23;10.57;;;;;;;-145.18;100.00;60484.78;5076849;28;20043;-66
2021/11/14 07:04:40;;;;;;;40.17;10.03;;;;;;;-145.18;100.00;60484.78;5078076;28;20032;-66
2021/11/14 07:07:07;;;;;;;35.17;9.47;;;;;;;-145.18;100.00;60484.78;5078684;28;20023;-66
2021/11/14 07:09:33;;;;;;;34.97;9.50;;;;;;;-145.18;100.00;60484.78;5075893;28;20031;-66
2021/11/14 07:11:58;;;;;;;38.40;9.97;;;;;;;-145.18;100.00;60484.78;5071031;28;20100;-66
2021/11/14 07:14:25;;;;;;;42.93;9.80;;;;;;;-145.18;100.00;60484.78;5079058;28;20188;-66
2021/11/14 07:16:51;;;;;;;36.43;10.47;;;;;;;-145.18;100.00;60484.78;5078498;28;20326;-66
2021/11/14 07:19:17;;;;;;;42.40;11.77;;;;;;;-145.18;100.00;60484.78;5077977;28;20035;-66
2021/11/14 07:21:44;;;;;;;40.07;10.57;;;;;;;-145.18;100.00;60484.78;5078607;28;20028;-66
2021/11/14 07:24:09;;;;;;;35.40;9.37;;;;;;;-145.18;100.00;60484.78;5078948;28;20677;-66
2021/11/14 07:26:35;;;;;;;46.83;10.57;;;;;;;-145.18;100.00;60484.78;5078376;28;20192;-66
2021/11/14 07:29:00;;;;;;;39.53;10.03;;;;;;;-145.18;100.00;60484.78;5078504;28;20027;-66
2021/11/14 07:31:26;;;;;;;44.03;10.20;;;;;;;-145.18;100.00;60484.78;5075676;28;20081;-66
2021/11/14 07:33:51;;;;;;;43.37;10.50;;;;;;;-145.18;100.00;60484.78;5076366;28;20115;-66
2021/11/14 07:36:17;;;;;;;37.43;8.60;;;;;;;-145.18;100.00;60484.78;5078224;28;20201;-66
2021/11/14 07:38:42;;;;;;;45.77;10.23;;;;;;;-145.18;100.00;60484.78;5078548;28;20024;-66
2021/11/14 07:41:08;;;;;;;38.83;9.77;;;;;;;-145.18;100.00;60484.78;5077172;28;20273;-66
2021/11/14 07:43:34;;;;;;;42.67;9.07;;;;;;;-145.18;100.00;60484.78;5078934;28;20035;-67
2021/11/14 07:45:59;;;;;;;38.80;9.60;;;;;;;-145.18;100.00;60484.78;5077068;28;20020;-67
2021/11/14 07:48:25;;;;;;;40.30;11.77;;;;;;;-145.18;100.00;60484.78;5078769;28;20024;-67
2021/11/14 07:50:54;;;;;;;41.57;10.60;;;;;;;-145.18;100.00;60484.78;5066988;28;20074;-67
2021/11/14 07:53:20;;;;;;;33.60;8.57;;;;;;;-145.18;100.00;60484.78;5066510;28;20032;-67
2021/11/14 07:55:46;;;;;;;42.87;9.93;;;;;;;-145.18;100.00;60484.78;5077830;28;20043;-67
2021/11/14 07:58:11;;;;;;;41.90;9.33;;;;;;;-145.18;100.00;60484.78;5076693;28;20276;-67
2021/11/14 08:00:37;;;;;;;39.17;10.37;;;;;;;-145.18;100.00;60484.78;5078289;28;20024;-67
2021/11/14 08:03:03;;;;;;;42.20;11.27;;;;;;;-145.18;100.00;60484.78;5064733;28;20047;-67
2021/11/14 08:05:29;;;;;;;41.07;10.17;;;;;;;-145.18;100.00;60484.78;5066863;28;20032;-67
2021/11/14 08:07:55;;;;;;;47.70;10.57;;;;;;;-145.18;100.00;60484.78;5078509;28;20472;-67
2021/11/14 08:10:21;;;;;;;36.37;9.63;;;;;;;-145.18;100.00;60484.78;5074846;28;20008;-67
2021/11/14 08:12:47;;;;;;;33.57;8.70;;;;;;;-145.18;100.00;60484.78;5071411;28;20038;-67
2021/11/14 08:15:13;;;;;;;44.33;10.17;;;;;;;-145.18;100.00;60484.78;5076124;28;20092;-67
2021/11/14 08:17:40;;;;;;;37.83;9.27;;;;;;;-145.18;100.00;60484.78;5066978;28;20412;-67
2021/11/14 08:20:06;;;;;;;40.60;10.43;;;;;;;-145.18;100.00;60484.78;5076150;28;20024;-67
2021/11/14 08:22:32;;;;;;;37.27;9.43;;;;;;;-145.18;100.00;60484.78;5068981;28;20298;-67
2021/11/14 08:24:58;;;;;;;42.40;10.57;;;;;;;-145.18;100.00;60484.78;5075286;28;20467;-67
2021/11/14 08:27:24;;;;;;;37.37;9.33;;;;;;;-145.18;100.00;60484.78;5079285;28;20027;-69
2021/11/14 08:29:50;;;;;;;41.97;10.83;;;;;;;-145.18;100.00;60484.78;5066657;28;20289;-67
2021/11/14 08:32:17;;;;;;;48.03;10.03;;;;;;;-145.18;100.00;60484.78;5080118;28;20062;-67
2021/11/14 08:34:43;;;;;;;48.87;10.23;;;;;;;-145.18;100.00;60484.78;5077197;28;20380;-67
2021/11/14 08:37:09;;;;;;;38.50;10.33;;;;;;;-145.18;100.00;60484.78;5080297;28;20531;-68
2021/11/14 08:39:35;;;;;;;42.83;9.73;;;;;;;-145.18;100.00;60484.78;5078300;28;20020;-68
2021/11/14 08:42:00;;;;;;;42.73;9.77;;;;;;;-145.18;100.00;60484.78;5079665;28;20430;-68
2021/11/14 08:44:28;;;;;;;33.60;8.20;;;;;;;-145.18;100.00;60484.78;5067819;28;20020;-67
2021/11/14 08:46:54;;;;;;;44.97;9.83;;;;;;;-145.18;100.00;60484.78;5067111;28;20032;-68
2021/11/14 08:49:19;;;;;;;38.37;9.63;;;;;;;-145.18;100.00;60484.78;5077573;28;20493;-69
2021/11/14 08:51:45;;;;;;;48.07;8.53;;;;;;;-145.18;100.00;60484.78;5069673;28;20042;-68
2021/11/14 08:54:11;;;;;;;44.90;9.03;;;;;;;-145.18;100.00;60484.78;5069336;28;20189;-68
2021/11/14 08:56:38;;;;;;;52.30;11.07;;;;;;;-145.18;100.00;60484.78;5081665;28;20024;-68
2021/11/14 08:59:08;;;;;;;48.13;10.67;;;;;;;-145.18;100.00;60484.78;5081577;28;20107;-68
2021/11/14 09:01:35;;;;;;;46.57;11.73;;;;;;;-145.18;100.00;60484.78;5080079;28;21223;-68
2021/11/14 09:04:02;;;;;;;38.90;8.80;;;;;;;-145.18;100.00;60484.78;5076943;28;20047;-68
2021/11/14 09:06:28;;;;;;;38.43;9.97;;;;;;;-145.18;100.00;60484.78;5081194;28;20423;-69
2021/11/14 09:08:54;;;;;;;41.13;9.33;;;;;;;-145.18;100.00;60484.78;5078479;28;20032;-67
2021/11/14 09:11:21;;;;;;;39.13;10.43;;;;;;;-145.18;100.00;60484.78;5081001;28;20259;-68
2021/11/14 09:13:47;;;;;;;39.43;9.87;;;;;;;-145.18;100.00;60484.78;5077143;28;20029;-67
2021/11/14 09:16:16;;;;;;;45.47;10.50;;;;;;;-145.18;100.00;60484.78;5075034;28;20028;-67
2021/11/14 09:18:42;;;;;;;45.30;9.40;;;;;;;-145.18;100.00;60484.78;5076807;28;20238;-67
2021/11/14 09:21:10;;;;;;;44.27;10.13;;;;;;;-145.18;100.00;60484.78;5081581;28;20596;-67
2021/11/14 09:23:36;;;;;;;46.37;10.57;;;;;;;-145.18;100.00;60484.78;5081667;28;20031;-67
2021/11/14 09:26:02;;;;;;;38.90;9.60;;;;;;;-145.18;100.00;60484.78;5072706;28;20392;-67
2021/11/14 09:28:27;;;;;;;35.83;9.33;;;;;;;-145.18;100.00;60484.78;5071180;28;20101;-68
2021/11/14 09:30:53;;;;;;;40.47;9.30;;;;;;;-145.18;100.00;60484.78;5075552;28;20031;-68
2021/11/14 09:33:21;;;;;;;48.50;11.00;;;;;;;-145.18;100.00;60484.78;5072164;28;20032;-68
2021/11/14 09:35:47;;;;;;;43.33;9.23;;;;;;;-145.18;100.00;60484.78;5076791;28;20325;-68
2021/11/14 09:38:14;;;;;;;33.87;8.07;;;;;;;-145.18;100.00;60484.78;5071023;28;20523;-66
2021/11/14 09:40:41;;;;;;;44.03;11.00;;;;;;;-145.18;100.00;60484.78;5073585;28;20046;-67
2021/11/14 09:43:07;;;;;;;44.40;10.17;;;;;;;-145.18;100.00;60484.78;5074742;28;20733;-67
2021/11/14 09:45:35;;;;;;;49.57;10.40;;;;;;;-145.18;100.00;60484.78;5063363;28;20111;-69
2021/11/14 09:48:00;;;;;;;41.17;10.47;;;;;;;-145.18;100.00;60484.78;5067800;28;20024;-67
2021/11/14 09:50:27;;;;;;;52.87;10.87;;;;;;;-145.18;100.00;60484.78;5064766;28;20175;-68
2021/11/14 09:52:52;;;;;;;38.07;10.03;;;;;;;-145.18;100.00;60484.78;5065251;28;20036;-68
2021/11/14 09:55:19;;;;;;;43.60;9.70;;;;;;;-145.18;100.00;60484.78;5068977;28;20414;-68
2021/11/14 09:57:45;;;;;;;38.60;10.10;;;;;;;-145.18;100.00;60484.78;5065343;28;20283;-68
2021/11/14 10:00:13;;;;;;;49.93;11.03;;;;;;;-145.18;100.00;60484.78;5067735;28;20062;-68
2021/11/14 10:02:39;;;;;;;38.23;10.00;;;;;;;-145.18;100.00;60484.78;5072887;28;20050;-68
2021/11/14 10:05:07;;;;;;;41.67;9.90;;;;;;;-145.18;100.00;60484.78;5071486;28;20112;-68
2021/11/14 10:07:33;;;;;;;47.33;10.07;;;;;;;-145.18;100.00;60484.78;5059890;28;20243;-68
2021/11/14 10:09:59;;;;;;;46.97;11.17;;;;;;;-145.18;100.00;60484.78;5063303;28;20672;-68
2021/11/14 10:12:36;;;;;;;50.27;10.30;;;;;;;-145.18;100.00;60484.78;5067359;28;20236;-68
2021/11/14 10:15:13;;;;;;;39.80;10.27;;;;;;;-145.18;100.00;60484.78;5061674;28;20035;-68
2021/11/14 10:17:48;;;;;;;50.23;12.47;;;;;;;-145.18;100.00;60484.78;5073711;28;20253;-68
2021/11/14 10:20:23;;;;;;;43.30;10.13;;;;;;;-145.18;100.00;60484.78;5070161;28;20391;-68
2021/11/14 10:22:58;;;;;;;47.57;9.60;;;;;;;-145.18;100.00;60484.78;5068737;28;20115;-68
2021/11/14 10:25:24;;;;;;;39.63;11.20;;;;;;;-145.18;100.00;60484.78;5062526;28;20159;-68
2021/11/14 10:27:56;;;;;;;48.23;10.47;;;;;;;-145.18;100.00;60484.78;5070981;28;20262;-68
2021/11/14 10:30:24;;;;;;;44.33;11.05;;;;;;;-145.18;100.00;60484.78;5072524;28;20039;-68
2021/11/14 10:33:00;;;;;;;50.07;10.60;;;;;;;-145.18;100.00;60484.78;5059948;28;20082;-68
2021/11/14 10:35:26;;;;;;;49.73;12.10;;;;;;;-145.18;100.00;60484.78;5072603;28;20122;-68
2021/11/14 10:37:54;;;;;;;46.97;11.73;;;;;;;-145.18;100.00;60484.78;5072808;28;20165;-68
2021/11/14 10:40:26;;;;;;;53.33;12.57;;;;;;;-145.18;100.00;60484.78;5065639;28;20245;-68
2021/11/14 10:42:57;;;;;;;53.00;12.63;;;;;;;-145.18;100.00;60484.78;5075384;28;20503;-68
2021/11/14 10:45:24;;;;;;;53.63;13.05;;;;;;;-145.18;100.00;60484.78;5074777;28;20035;-68
2021/11/14 10:48:01;;;;;;;55.70;13.87;;;;;;;-145.18;100.00;60484.78;5072211;28;20028;-68
2021/11/14 10:50:31;;;;;;;58.87;13.47;;;;;;;-145.18;100.00;60484.78;5069334;28;20448;-68
2021/11/14 10:53:00;;;;;;;47.10;11.23;;;;;;;-145.18;100.00;60484.78;5073299;28;20141;-68
2021/11/14 10:55:30;;;;;;;52.00;12.07;;;;;;;-145.18;100.00;60484.78;5072461;28;20254;-68
2021/11/14 10:57:55;;;;;;;47.47;11.20;;;;;;;-145.18;100.00;60484.78;5068187;28;20062;-68